sensor_id;sensor_type;location;lat;lon;timestamp;P1;durP1;ratioP1;P2;durP2;ratioP2
9801;SDS011;4940;50.900;4.672;2024-01-30T00:00:37;48.33;;;44.35;;
9801;SDS011;4940;50.900;4.672;2024-01-30T00:03:05;48.88;;;45.20;;
9801;SDS011;4940;50.900;4.672;2024-01-30T00:05:33;45.40;;;41.85;;
9801;SDS011;4940;50.900;4.672;2024-01-30T00:08:00;47.85;;;44.17;;
9801;SDS011;4940;50.900;4.672;2024-01-30T00:10:29;47.67;;;43.80;;
9801;SDS011;4940;50.900;4.672;2024-01-30T00:12:57;49.42;;;45.35;;
9801;SDS011;4940;50.900;4.672;2024-01-30T00:15:24;47.85;;;43.85;;
9801;SDS011;4940;50.900;4.672;2024-01-30T00:17:52;47.75;;;43.95;;
9801;SDS011;4940;50.900;4.672;2024-01-30T00:20:20;46.13;;;42.50;;
9801;SDS011;4940;50.900;4.672;2024-01-30T00:22:48;46.45;;;42.65;;
9801;SDS011;4940;50.900;4.672;2024-01-30T00:25:15;48.63;;;44.70;;
9801;SDS011;4940;50.900;4.672;2024-01-30T00:27:44;41.30;;;37.50;;
9801;SDS011;4940;50.900;4.672;2024-01-30T00:30:12;39.08;;;35.28;;
9801;SDS011;4940;50.900;4.672;2024-01-30T00:32:41;40.55;;;36.90;;
9801;SDS011;4940;50.900;4.672;2024-01-30T00:35:09;41.78;;;37.88;;
9801;SDS011;4940;50.900;4.672;2024-01-30T00:37:36;41.47;;;37.58;;
9801;SDS011;4940;50.900;4.672;2024-01-30T00:40:04;42.33;;;38.50;;
9801;SDS011;4940;50.900;4.672;2024-01-30T00:42:32;40.42;;;36.72;;
9801;SDS011;4940;50.900;4.672;2024-01-30T00:45:01;41.05;;;37.35;;
9801;SDS011;4940;50.900;4.672;2024-01-30T00:47:28;41.40;;;37.15;;
9801;SDS011;4940;50.900;4.672;2024-01-30T00:49:58;40.08;;;36.40;;
9801;SDS011;4940;50.900;4.672;2024-01-30T00:52:25;42.25;;;38.60;;
9801;SDS011;4940;50.900;4.672;2024-01-30T00:54:53;42.78;;;38.97;;
9801;SDS011;4940;50.900;4.672;2024-01-30T00:57:20;42.90;;;39.10;;
9801;SDS011;4940;50.900;4.672;2024-01-30T00:59:48;42.60;;;38.90;;
9801;SDS011;4940;50.900;4.672;2024-01-30T01:02:16;42.90;;;39.30;;
9801;SDS011;4940;50.900;4.672;2024-01-30T01:04:44;41.00;;;37.40;;
9801;SDS011;4940;50.900;4.672;2024-01-30T01:07:11;41.55;;;37.92;;
9801;SDS011;4940;50.900;4.672;2024-01-30T01:09:39;41.13;;;37.35;;
9801;SDS011;4940;50.900;4.672;2024-01-30T01:12:07;42.28;;;38.42;;
9801;SDS011;4940;50.900;4.672;2024-01-30T01:14:34;41.33;;;37.63;;
9801;SDS011;4940;50.900;4.672;2024-01-30T01:17:02;40.55;;;37.05;;
9801;SDS011;4940;50.900;4.672;2024-01-30T01:19:30;40.20;;;36.80;;
9801;SDS011;4940;50.900;4.672;2024-01-30T01:21:58;41.03;;;37.53;;
9801;SDS011;4940;50.900;4.672;2024-01-30T01:24:25;41.17;;;37.50;;
9801;SDS011;4940;50.900;4.672;2024-01-30T01:26:53;39.20;;;35.90;;
9801;SDS011;4940;50.900;4.672;2024-01-30T01:29:21;38.80;;;35.38;;
9801;SDS011;4940;50.900;4.672;2024-01-30T01:31:53;38.90;;;35.60;;
9801;SDS011;4940;50.900;4.672;2024-01-30T01:34:21;39.50;;;36.00;;
9801;SDS011;4940;50.900;4.672;2024-01-30T01:36:50;39.78;;;36.17;;
9801;SDS011;4940;50.900;4.672;2024-01-30T01:39:20;46.60;;;43.00;;
9801;SDS011;4940;50.900;4.672;2024-01-30T01:41:48;41.50;;;38.00;;
9801;SDS011;4940;50.900;4.672;2024-01-30T01:44:15;43.30;;;39.80;;
9801;SDS011;4940;50.900;4.672;2024-01-30T01:46:43;43.72;;;40.03;;
9801;SDS011;4940;50.900;4.672;2024-01-30T01:49:10;47.38;;;43.47;;
9801;SDS011;4940;50.900;4.672;2024-01-30T01:51:38;43.80;;;40.30;;
9801;SDS011;4940;50.900;4.672;2024-01-30T01:54:07;43.90;;;40.30;;
9801;SDS011;4940;50.900;4.672;2024-01-30T01:56:35;46.15;;;42.45;;
9801;SDS011;4940;50.900;4.672;2024-01-30T01:59:04;43.55;;;40.05;;
9801;SDS011;4940;50.900;4.672;2024-01-30T02:01:33;47.80;;;43.60;;
9801;SDS011;4940;50.900;4.672;2024-01-30T02:04:01;43.38;;;39.78;;
9801;SDS011;4940;50.900;4.672;2024-01-30T02:06:28;45.40;;;41.70;;
9801;SDS011;4940;50.900;4.672;2024-01-30T02:08:56;42.58;;;38.95;;
9801;SDS011;4940;50.900;4.672;2024-01-30T02:11:24;44.15;;;40.45;;
9801;SDS011;4940;50.900;4.672;2024-01-30T02:13:52;40.80;;;37.42;;
9801;SDS011;4940;50.900;4.672;2024-01-30T02:16:19;40.63;;;37.15;;
9801;SDS011;4940;50.900;4.672;2024-01-30T02:18:47;41.47;;;38.00;;
9801;SDS011;4940;50.900;4.672;2024-01-30T02:21:15;42.00;;;38.40;;
9801;SDS011;4940;50.900;4.672;2024-01-30T02:23:43;41.58;;;37.88;;
9801;SDS011;4940;50.900;4.672;2024-01-30T02:26:13;41.53;;;37.90;;
9801;SDS011;4940;50.900;4.672;2024-01-30T02:28:40;41.28;;;37.78;;
9801;SDS011;4940;50.900;4.672;2024-01-30T02:31:07;42.95;;;39.30;;
9801;SDS011;4940;50.900;4.672;2024-01-30T02:33:34;41.63;;;38.03;;
9801;SDS011;4940;50.900;4.672;2024-01-30T02:36:01;42.05;;;38.63;;
9801;SDS011;4940;50.900;4.672;2024-01-30T02:38:30;43.70;;;39.92;;
9801;SDS011;4940;50.900;4.672;2024-01-30T02:40:57;42.33;;;38.90;;
9801;SDS011;4940;50.900;4.672;2024-01-30T02:43:25;42.25;;;38.55;;
9801;SDS011;4940;50.900;4.672;2024-01-30T02:45:52;44.83;;;41.13;;
9801;SDS011;4940;50.900;4.672;2024-01-30T02:48:19;44.30;;;40.50;;
9801;SDS011;4940;50.900;4.672;2024-01-30T02:50:47;46.80;;;43.20;;
9801;SDS011;4940;50.900;4.672;2024-01-30T02:53:14;46.25;;;42.33;;
9801;SDS011;4940;50.900;4.672;2024-01-30T02:55:43;44.67;;;41.17;;
9801;SDS011;4940;50.900;4.672;2024-01-30T02:58:10;42.80;;;39.20;;
9801;SDS011;4940;50.900;4.672;2024-01-30T03:00:38;45.35;;;41.60;;
9801;SDS011;4940;50.900;4.672;2024-01-30T03:03:05;47.30;;;43.63;;
9801;SDS011;4940;50.900;4.672;2024-01-30T03:05:32;45.05;;;41.45;;
9801;SDS011;4940;50.900;4.672;2024-01-30T03:08:00;46.47;;;42.88;;
9801;SDS011;4940;50.900;4.672;2024-01-30T03:10:27;44.00;;;40.50;;
9801;SDS011;4940;50.900;4.672;2024-01-30T03:12:56;44.42;;;40.85;;
9801;SDS011;4940;50.900;4.672;2024-01-30T03:15:23;40.78;;;37.45;;
9801;SDS011;4940;50.900;4.672;2024-01-30T03:17:50;42.17;;;38.78;;
9801;SDS011;4940;50.900;4.672;2024-01-30T03:20:18;42.88;;;39.38;;
9801;SDS011;4940;50.900;4.672;2024-01-30T03:22:45;42.97;;;39.42;;
9801;SDS011;4940;50.900;4.672;2024-01-30T03:25:12;42.42;;;38.72;;
9801;SDS011;4940;50.900;4.672;2024-01-30T03:27:40;41.47;;;38.17;;
9801;SDS011;4940;50.900;4.672;2024-01-30T03:30:09;43.38;;;39.70;;
9801;SDS011;4940;50.900;4.672;2024-01-30T03:32:36;43.58;;;39.90;;
9801;SDS011;4940;50.900;4.672;2024-01-30T03:35:04;36.80;;;33.50;;
9801;SDS011;4940;50.900;4.672;2024-01-30T03:37:31;39.08;;;35.55;;
9801;SDS011;4940;50.900;4.672;2024-01-30T03:39:59;40.10;;;36.40;;
9801;SDS011;4940;50.900;4.672;2024-01-30T03:42:26;38.90;;;35.40;;
9801;SDS011;4940;50.900;4.672;2024-01-30T03:44:53;40.20;;;36.70;;
9801;SDS011;4940;50.900;4.672;2024-01-30T03:47:22;40.50;;;36.83;;
9801;SDS011;4940;50.900;4.672;2024-01-30T03:49:49;41.08;;;37.50;;
9801;SDS011;4940;50.900;4.672;2024-01-30T03:52:17;39.90;;;36.08;;
9801;SDS011;4940;50.900;4.672;2024-01-30T03:54:44;41.38;;;37.67;;
9801;SDS011;4940;50.900;4.672;2024-01-30T03:57:11;42.38;;;38.67;;
9801;SDS011;4940;50.900;4.672;2024-01-30T03:59:41;41.53;;;37.83;;
9801;SDS011;4940;50.900;4.672;2024-01-30T04:02:09;41.42;;;37.65;;
9801;SDS011;4940;50.900;4.672;2024-01-30T04:04:38;41.78;;;37.88;;
9801;SDS011;4940;50.900;4.672;2024-01-30T04:07:05;40.72;;;37.03;;
9801;SDS011;4940;50.900;4.672;2024-01-30T04:09:33;42.65;;;38.80;;
9801;SDS011;4940;50.900;4.672;2024-01-30T04:12:00;42.47;;;38.80;;
9801;SDS011;4940;50.900;4.672;2024-01-30T04:14:28;41.30;;;37.67;;
9801;SDS011;4940;50.900;4.672;2024-01-30T04:16:55;41.15;;;37.15;;
9801;SDS011;4940;50.900;4.672;2024-01-30T04:19:23;43.17;;;39.33;;
9801;SDS011;4940;50.900;4.672;2024-01-30T04:21:51;45.45;;;41.47;;
9801;SDS011;4940;50.900;4.672;2024-01-30T04:24:19;44.63;;;41.03;;
9801;SDS011;4940;50.900;4.672;2024-01-30T04:26:46;46.65;;;42.85;;
9801;SDS011;4940;50.900;4.672;2024-01-30T04:29:14;40.72;;;37.05;;
9801;SDS011;4940;50.900;4.672;2024-01-30T04:31:41;41.45;;;38.00;;
9801;SDS011;4940;50.900;4.672;2024-01-30T04:34:09;41.95;;;38.25;;
9801;SDS011;4940;50.900;4.672;2024-01-30T04:36:36;45.33;;;41.85;;
9801;SDS011;4940;50.900;4.672;2024-01-30T04:39:04;40.25;;;37.03;;
9801;SDS011;4940;50.900;4.672;2024-01-30T04:41:34;45.35;;;41.85;;
9801;SDS011;4940;50.900;4.672;2024-01-30T04:44:01;43.67;;;40.35;;
9801;SDS011;4940;50.900;4.672;2024-01-30T04:46:28;44.92;;;41.42;;
9801;SDS011;4940;50.900;4.672;2024-01-30T04:48:55;44.65;;;41.15;;
9801;SDS011;4940;50.900;4.672;2024-01-30T04:51:23;43.92;;;40.45;;
9801;SDS011;4940;50.900;4.672;2024-01-30T04:53:50;45.33;;;41.92;;
9801;SDS011;4940;50.900;4.672;2024-01-30T04:56:19;43.50;;;40.08;;
9801;SDS011;4940;50.900;4.672;2024-01-30T04:58:46;44.15;;;40.75;;
9801;SDS011;4940;50.900;4.672;2024-01-30T05:01:14;40.13;;;36.85;;
9801;SDS011;4940;50.900;4.672;2024-01-30T05:03:42;40.13;;;37.05;;
9801;SDS011;4940;50.900;4.672;2024-01-30T05:06:10;41.53;;;38.13;;
9801;SDS011;4940;50.900;4.672;2024-01-30T05:08:37;40.78;;;37.60;;
9801;SDS011;4940;50.900;4.672;2024-01-30T05:11:05;40.95;;;37.95;;
9801;SDS011;4940;50.900;4.672;2024-01-30T05:13:34;45.55;;;42.05;;
9801;SDS011;4940;50.900;4.672;2024-01-30T05:16:01;41.05;;;38.13;;
9801;SDS011;4940;50.900;4.672;2024-01-30T05:18:29;44.28;;;41.03;;
9801;SDS011;4940;50.900;4.672;2024-01-30T05:20:57;40.72;;;37.63;;
9801;SDS011;4940;50.900;4.672;2024-01-30T05:23:25;41.50;;;38.28;;
9801;SDS011;4940;50.900;4.672;2024-01-30T05:25:51;44.40;;;40.92;;
9801;SDS011;4940;50.900;4.672;2024-01-30T05:28:18;42.40;;;39.30;;
9801;SDS011;4940;50.900;4.672;2024-01-30T05:30:47;40.88;;;37.55;;
9801;SDS011;4940;50.900;4.672;2024-01-30T05:33:14;42.17;;;39.10;;
9801;SDS011;4940;50.900;4.672;2024-01-30T05:35:42;44.63;;;41.28;;
9801;SDS011;4940;50.900;4.672;2024-01-30T05:38:09;42.53;;;39.25;;
9801;SDS011;4940;50.900;4.672;2024-01-30T05:40:36;42.47;;;39.38;;
9801;SDS011;4940;50.900;4.672;2024-01-30T05:43:04;42.90;;;39.80;;
9801;SDS011;4940;50.900;4.672;2024-01-30T05:45:31;44.72;;;41.53;;
9801;SDS011;4940;50.900;4.672;2024-01-30T05:48:00;41.55;;;38.35;;
9801;SDS011;4940;50.900;4.672;2024-01-30T05:50:28;44.15;;;41.00;;
9801;SDS011;4940;50.900;4.672;2024-01-30T05:52:55;42.30;;;39.30;;
9801;SDS011;4940;50.900;4.672;2024-01-30T05:55:22;39.78;;;36.75;;
9801;SDS011;4940;50.900;4.672;2024-01-30T05:57:50;42.22;;;39.10;;
9801;SDS011;4940;50.900;4.672;2024-01-30T06:00:18;43.40;;;40.10;;
9801;SDS011;4940;50.900;4.672;2024-01-30T06:02:45;42.00;;;38.65;;
9801;SDS011;4940;50.900;4.672;2024-01-30T06:05:14;41.65;;;38.47;;
9801;SDS011;4940;50.900;4.672;2024-01-30T06:07:41;40.95;;;37.42;;
9801;SDS011;4940;50.900;4.672;2024-01-30T06:10:09;39.50;;;36.40;;
9801;SDS011;4940;50.900;4.672;2024-01-30T06:12:37;37.90;;;34.67;;
9801;SDS011;4940;50.900;4.672;2024-01-30T06:15:05;39.65;;;36.42;;
9801;SDS011;4940;50.900;4.672;2024-01-30T06:17:32;41.83;;;38.53;;
9801;SDS011;4940;50.900;4.672;2024-01-30T06:20:00;39.83;;;36.58;;
9801;SDS011;4940;50.900;4.672;2024-01-30T06:22:29;38.45;;;35.58;;
9801;SDS011;4940;50.900;4.672;2024-01-30T06:24:56;38.42;;;35.53;;
9801;SDS011;4940;50.900;4.672;2024-01-30T06:27:24;40.65;;;37.42;;
9801;SDS011;4940;50.900;4.672;2024-01-30T06:29:51;39.00;;;35.83;;
9801;SDS011;4940;50.900;4.672;2024-01-30T06:32:18;37.50;;;34.47;;
9801;SDS011;4940;50.900;4.672;2024-01-30T06:34:46;38.63;;;35.45;;
9801;SDS011;4940;50.900;4.672;2024-01-30T06:37:13;39.47;;;36.47;;
9801;SDS011;4940;50.900;4.672;2024-01-30T06:39:42;37.53;;;34.67;;
9801;SDS011;4940;50.900;4.672;2024-01-30T06:42:09;42.05;;;38.70;;
9801;SDS011;4940;50.900;4.672;2024-01-30T06:44:37;40.28;;;37.08;;
9801;SDS011;4940;50.900;4.672;2024-01-30T06:47:04;42.15;;;38.95;;
9801;SDS011;4940;50.900;4.672;2024-01-30T06:49:31;39.33;;;36.45;;
9801;SDS011;4940;50.900;4.672;2024-01-30T06:52:00;43.00;;;39.70;;
9801;SDS011;4940;50.900;4.672;2024-01-30T06:54:27;40.67;;;37.47;;
9801;SDS011;4940;50.900;4.672;2024-01-30T06:56:56;39.95;;;36.72;;
9801;SDS011;4940;50.900;4.672;2024-01-30T06:59:23;38.80;;;35.70;;
9801;SDS011;4940;50.900;4.672;2024-01-30T07:01:50;40.00;;;37.03;;
9801;SDS011;4940;50.900;4.672;2024-01-30T07:04:18;40.75;;;37.45;;
9801;SDS011;4940;50.900;4.672;2024-01-30T07:06:46;41.80;;;38.90;;
9801;SDS011;4940;50.900;4.672;2024-01-30T07:09:13;45.83;;;42.53;;
9801;SDS011;4940;50.900;4.672;2024-01-30T07:11:40;49.65;;;46.15;;
9801;SDS011;4940;50.900;4.672;2024-01-30T07:14:10;50.38;;;46.70;;
9801;SDS011;4940;50.900;4.672;2024-01-30T07:16:37;46.10;;;42.90;;
9801;SDS011;4940;50.900;4.672;2024-01-30T07:19:04;50.88;;;47.38;;
9801;SDS011;4940;50.900;4.672;2024-01-30T07:21:34;52.55;;;48.85;;
9801;SDS011;4940;50.900;4.672;2024-01-30T07:24:02;56.75;;;52.75;;
9801;SDS011;4940;50.900;4.672;2024-01-30T07:26:29;51.83;;;48.42;;
9801;SDS011;4940;50.900;4.672;2024-01-30T07:28:57;55.20;;;51.42;;
9801;SDS011;4940;50.900;4.672;2024-01-30T07:31:26;50.78;;;47.25;;
9801;SDS011;4940;50.900;4.672;2024-01-30T07:33:55;54.70;;;50.95;;
9801;SDS011;4940;50.900;4.672;2024-01-30T07:36:23;48.30;;;44.90;;
9801;SDS011;4940;50.900;4.672;2024-01-30T07:38:51;51.92;;;48.42;;
9801;SDS011;4940;50.900;4.672;2024-01-30T07:41:20;42.28;;;38.88;;
9801;SDS011;4940;50.900;4.672;2024-01-30T07:43:48;44.33;;;41.13;;
9801;SDS011;4940;50.900;4.672;2024-01-30T07:46:16;41.33;;;38.22;;
9801;SDS011;4940;50.900;4.672;2024-01-30T07:48:44;44.58;;;41.22;;
9801;SDS011;4940;50.900;4.672;2024-01-30T07:51:12;45.67;;;42.00;;
9801;SDS011;4940;50.900;4.672;2024-01-30T07:53:41;45.05;;;41.58;;
9801;SDS011;4940;50.900;4.672;2024-01-30T07:56:08;45.42;;;41.85;;
9801;SDS011;4940;50.900;4.672;2024-01-30T07:58:36;44.50;;;41.00;;
9801;SDS011;4940;50.900;4.672;2024-01-30T08:01:04;42.05;;;38.72;;
9801;SDS011;4940;50.900;4.672;2024-01-30T08:03:32;42.88;;;39.47;;
9801;SDS011;4940;50.900;4.672;2024-01-30T08:06:01;43.53;;;40.03;;
9801;SDS011;4940;50.900;4.672;2024-01-30T08:08:28;41.75;;;38.55;;
9801;SDS011;4940;50.900;4.672;2024-01-30T08:10:56;42.72;;;39.22;;
9801;SDS011;4940;50.900;4.672;2024-01-30T08:13:23;41.60;;;38.10;;
9801;SDS011;4940;50.900;4.672;2024-01-30T08:15:50;40.15;;;36.90;;
9801;SDS011;4940;50.900;4.672;2024-01-30T08:18:18;42.55;;;39.08;;
9801;SDS011;4940;50.900;4.672;2024-01-30T08:20:45;43.20;;;39.67;;
9801;SDS011;4940;50.900;4.672;2024-01-30T08:23:15;42.10;;;38.70;;
9801;SDS011;4940;50.900;4.672;2024-01-30T08:25:43;40.42;;;36.92;;
9801;SDS011;4940;50.900;4.672;2024-01-30T08:28:10;40.95;;;37.60;;
9801;SDS011;4940;50.900;4.672;2024-01-30T08:30:38;42.42;;;39.05;;
9801;SDS011;4940;50.900;4.672;2024-01-30T08:33:05;40.72;;;37.28;;
9801;SDS011;4940;50.900;4.672;2024-01-30T08:35:33;44.55;;;40.88;;
9801;SDS011;4940;50.900;4.672;2024-01-30T08:38:01;41.92;;;38.60;;
9801;SDS011;4940;50.900;4.672;2024-01-30T08:40:30;43.10;;;39.42;;
9801;SDS011;4940;50.900;4.672;2024-01-30T08:42:57;47.30;;;43.70;;
9801;SDS011;4940;50.900;4.672;2024-01-30T08:45:25;47.17;;;43.47;;
9801;SDS011;4940;50.900;4.672;2024-01-30T08:47:52;43.30;;;39.90;;
9801;SDS011;4940;50.900;4.672;2024-01-30T08:50:20;46.58;;;43.08;;
9801;SDS011;4940;50.900;4.672;2024-01-30T08:52:47;43.88;;;40.63;;
9801;SDS011;4940;50.900;4.672;2024-01-30T08:55:15;44.53;;;40.83;;
9801;SDS011;4940;50.900;4.672;2024-01-30T08:57:43;45.90;;;42.35;;
9801;SDS011;4940;50.900;4.672;2024-01-30T09:00:11;47.03;;;43.33;;
9801;SDS011;4940;50.900;4.672;2024-01-30T09:02:39;49.30;;;45.35;;
9801;SDS011;4940;50.900;4.672;2024-01-30T09:05:06;44.85;;;41.20;;
9801;SDS011;4940;50.900;4.672;2024-01-30T09:07:34;46.67;;;43.30;;
9801;SDS011;4940;50.900;4.672;2024-01-30T09:10:01;46.53;;;42.88;;
9801;SDS011;4940;50.900;4.672;2024-01-30T09:12:29;44.78;;;41.22;;
9801;SDS011;4940;50.900;4.672;2024-01-30T09:14:57;45.47;;;42.08;;
9801;SDS011;4940;50.900;4.672;2024-01-30T09:17:25;42.55;;;38.95;;
9801;SDS011;4940;50.900;4.672;2024-01-30T09:19:52;42.28;;;38.90;;
9801;SDS011;4940;50.900;4.672;2024-01-30T09:22:20;40.80;;;37.90;;
9801;SDS011;4940;50.900;4.672;2024-01-30T09:24:47;41.75;;;38.45;;
9801;SDS011;4940;50.900;4.672;2024-01-30T09:27:15;41.92;;;38.50;;
9801;SDS011;4940;50.900;4.672;2024-01-30T09:29:42;41.22;;;38.13;;
9801;SDS011;4940;50.900;4.672;2024-01-30T09:32:11;41.25;;;37.80;;
9801;SDS011;4940;50.900;4.672;2024-01-30T09:34:39;42.45;;;38.97;;
9801;SDS011;4940;50.900;4.672;2024-01-30T09:37:07;40.50;;;37.03;;
9801;SDS011;4940;50.900;4.672;2024-01-30T09:39:34;41.38;;;37.70;;
9801;SDS011;4940;50.900;4.672;2024-01-30T09:42:04;40.67;;;37.47;;
9801;SDS011;4940;50.900;4.672;2024-01-30T09:44:38;40.78;;;37.33;;
9801;SDS011;4940;50.900;4.672;2024-01-30T09:47:07;39.72;;;36.38;;
9801;SDS011;4940;50.900;4.672;2024-01-30T09:49:36;41.95;;;38.45;;
9801;SDS011;4940;50.900;4.672;2024-01-30T09:52:05;41.47;;;38.17;;
9801;SDS011;4940;50.900;4.672;2024-01-30T09:54:32;43.30;;;39.80;;
9801;SDS011;4940;50.900;4.672;2024-01-30T09:57:01;41.13;;;37.35;;
9801;SDS011;4940;50.900;4.672;2024-01-30T09:59:29;41.03;;;37.72;;
9801;SDS011;4940;50.900;4.672;2024-01-30T10:01:56;40.55;;;37.15;;
9801;SDS011;4940;50.900;4.672;2024-01-30T10:04:24;41.42;;;38.15;;
9801;SDS011;4940;50.900;4.672;2024-01-30T10:06:52;40.03;;;36.70;;
9801;SDS011;4940;50.900;4.672;2024-01-30T10:09:20;40.75;;;37.47;;
9801;SDS011;4940;50.900;4.672;2024-01-30T10:11:48;39.03;;;35.80;;
9801;SDS011;4940;50.900;4.672;2024-01-30T10:14:17;41.42;;;38.05;;
9801;SDS011;4940;50.900;4.672;2024-01-30T10:16:45;40.22;;;36.78;;
9801;SDS011;4940;50.900;4.672;2024-01-30T10:19:13;41.75;;;38.35;;
9801;SDS011;4940;50.900;4.672;2024-01-30T10:21:40;42.35;;;38.60;;
9801;SDS011;4940;50.900;4.672;2024-01-30T10:24:09;41.83;;;38.17;;
9801;SDS011;4940;50.900;4.672;2024-01-30T10:26:38;42.85;;;39.03;;
9801;SDS011;4940;50.900;4.672;2024-01-30T10:29:05;45.28;;;41.55;;
9801;SDS011;4940;50.900;4.672;2024-01-30T10:31:33;45.05;;;40.90;;
9801;SDS011;4940;50.900;4.672;2024-01-30T10:34:00;44.70;;;40.95;;
9801;SDS011;4940;50.900;4.672;2024-01-30T10:36:28;45.28;;;41.40;;
9801;SDS011;4940;50.900;4.672;2024-01-30T10:38:57;44.80;;;41.08;;
9801;SDS011;4940;50.900;4.672;2024-01-30T10:41:27;43.47;;;40.03;;
9801;SDS011;4940;50.900;4.672;2024-01-30T10:43:58;45.58;;;41.80;;
9801;SDS011;4940;50.900;4.672;2024-01-30T10:46:32;45.33;;;41.42;;
9801;SDS011;4940;50.900;4.672;2024-01-30T10:49:00;44.45;;;40.90;;
9801;SDS011;4940;50.900;4.672;2024-01-30T10:51:27;46.53;;;42.50;;
9801;SDS011;4940;50.900;4.672;2024-01-30T10:53:55;44.63;;;40.97;;
9801;SDS011;4940;50.900;4.672;2024-01-30T10:56:23;43.95;;;40.65;;
9801;SDS011;4940;50.900;4.672;2024-01-30T10:58:53;44.30;;;40.53;;
9801;SDS011;4940;50.900;4.672;2024-01-30T11:01:21;43.83;;;40.22;;
9801;SDS011;4940;50.900;4.672;2024-01-30T11:03:49;41.95;;;38.42;;
9801;SDS011;4940;50.900;4.672;2024-01-30T11:06:17;41.15;;;37.80;;
9801;SDS011;4940;50.900;4.672;2024-01-30T11:08:44;41.40;;;38.00;;
9801;SDS011;4940;50.900;4.672;2024-01-30T11:11:12;43.47;;;39.92;;
9801;SDS011;4940;50.900;4.672;2024-01-30T11:13:39;46.10;;;42.15;;
9801;SDS011;4940;50.900;4.672;2024-01-30T11:16:09;46.70;;;43.30;;
9801;SDS011;4940;50.900;4.672;2024-01-30T11:18:39;45.05;;;41.67;;
9801;SDS011;4940;50.900;4.672;2024-01-30T11:21:06;43.47;;;39.97;;
9801;SDS011;4940;50.900;4.672;2024-01-30T11:23:34;41.58;;;38.47;;
9801;SDS011;4940;50.900;4.672;2024-01-30T11:26:02;39.28;;;36.13;;
9801;SDS011;4940;50.900;4.672;2024-01-30T11:28:32;39.03;;;36.03;;
9801;SDS011;4940;50.900;4.672;2024-01-30T11:31:03;37.42;;;34.83;;
9801;SDS011;4940;50.900;4.672;2024-01-30T11:33:33;37.75;;;34.92;;
9801;SDS011;4940;50.900;4.672;2024-01-30T11:36:01;36.80;;;33.95;;
9801;SDS011;4940;50.900;4.672;2024-01-30T11:38:32;36.95;;;34.17;;
9801;SDS011;4940;50.900;4.672;2024-01-30T11:40:59;34.22;;;31.83;;
9801;SDS011;4940;50.900;4.672;2024-01-30T11:43:27;34.33;;;31.85;;
9801;SDS011;4940;50.900;4.672;2024-01-30T11:45:55;37.05;;;33.88;;
9801;SDS011;4940;50.900;4.672;2024-01-30T11:48:22;35.92;;;33.13;;
9801;SDS011;4940;50.900;4.672;2024-01-30T11:50:51;35.58;;;33.25;;
9801;SDS011;4940;50.900;4.672;2024-01-30T11:53:20;34.38;;;31.95;;
9801;SDS011;4940;50.900;4.672;2024-01-30T11:55:52;33.13;;;30.92;;
9801;SDS011;4940;50.900;4.672;2024-01-30T11:58:19;33.03;;;30.98;;
9801;SDS011;4940;50.900;4.672;2024-01-30T12:00:52;28.63;;;26.83;;
9801;SDS011;4940;50.900;4.672;2024-01-30T12:03:20;28.13;;;26.20;;
9801;SDS011;4940;50.900;4.672;2024-01-30T12:05:57;26.80;;;25.13;;
9801;SDS011;4940;50.900;4.672;2024-01-30T12:08:25;27.33;;;25.75;;
9801;SDS011;4940;50.900;4.672;2024-01-30T12:10:55;26.25;;;24.55;;
9801;SDS011;4940;50.900;4.672;2024-01-30T12:13:23;23.65;;;22.25;;
9801;SDS011;4940;50.900;4.672;2024-01-30T12:15:51;18.30;;;17.33;;
9801;SDS011;4940;50.900;4.672;2024-01-30T12:18:18;15.88;;;15.07;;
9801;SDS011;4940;50.900;4.672;2024-01-30T12:20:57;14.20;;;13.45;;
9801;SDS011;4940;50.900;4.672;2024-01-30T12:23:26;10.57;;;9.68;;
9801;SDS011;4940;50.900;4.672;2024-01-30T12:25:55;8.48;;;7.90;;
9801;SDS011;4940;50.900;4.672;2024-01-30T12:28:23;6.10;;;5.70;;
9801;SDS011;4940;50.900;4.672;2024-01-30T12:30:53;5.55;;;5.15;;
9801;SDS011;4940;50.900;4.672;2024-01-30T12:33:24;5.07;;;4.72;;
9801;SDS011;4940;50.900;4.672;2024-01-30T12:35:53;3.10;;;2.90;;
9801;SDS011;4940;50.900;4.672;2024-01-30T12:38:21;3.75;;;2.83;;
9801;SDS011;4940;50.900;4.672;2024-01-30T12:40:50;2.35;;;2.15;;
9801;SDS011;4940;50.900;4.672;2024-01-30T12:43:21;2.50;;;2.40;;
9801;SDS011;4940;50.900;4.672;2024-01-30T12:45:49;3.10;;;3.00;;
9801;SDS011;4940;50.900;4.672;2024-01-30T12:48:17;3.80;;;3.50;;
9801;SDS011;4940;50.900;4.672;2024-01-30T12:50:44;3.85;;;3.65;;
9801;SDS011;4940;50.900;4.672;2024-01-30T12:53:12;2.72;;;2.63;;
9801;SDS011;4940;50.900;4.672;2024-01-30T12:55:40;3.30;;;3.10;;
9801;SDS011;4940;50.900;4.672;2024-01-30T12:58:07;3.83;;;3.35;;
9801;SDS011;4940;50.900;4.672;2024-01-30T13:00:35;3.40;;;3.10;;
9801;SDS011;4940;50.900;4.672;2024-01-30T13:03:03;3.40;;;3.20;;
9801;SDS011;4940;50.900;4.672;2024-01-30T13:05:30;4.25;;;2.40;;
9801;SDS011;4940;50.900;4.672;2024-01-30T13:07:57;2.15;;;1.95;;
9801;SDS011;4940;50.900;4.672;2024-01-30T13:10:25;1.70;;;1.60;;
9801;SDS011;4940;50.900;4.672;2024-01-30T13:12:54;1.73;;;1.35;;
9801;SDS011;4940;50.900;4.672;2024-01-30T13:15:21;3.00;;;1.40;;
9801;SDS011;4940;50.900;4.672;2024-01-30T13:17:49;2.05;;;1.40;;
9801;SDS011;4940;50.900;4.672;2024-01-30T13:20:18;2.33;;;1.48;;
9801;SDS011;4940;50.900;4.672;2024-01-30T13:22:46;2.65;;;1.45;;
9801;SDS011;4940;50.900;4.672;2024-01-30T13:25:15;2.50;;;1.30;;
9801;SDS011;4940;50.900;4.672;2024-01-30T13:27:42;4.30;;;1.60;;
9801;SDS011;4940;50.900;4.672;2024-01-30T13:30:11;1.42;;;1.23;;
9801;SDS011;4940;50.900;4.672;2024-01-30T13:32:39;1.10;;;1.08;;
9801;SDS011;4940;50.900;4.672;2024-01-30T13:35:09;2.25;;;1.30;;
9801;SDS011;4940;50.900;4.672;2024-01-30T13:37:37;3.60;;;1.23;;
9801;SDS011;4940;50.900;4.672;2024-01-30T13:40:05;2.15;;;1.20;;
9801;SDS011;4940;50.900;4.672;2024-01-30T13:42:34;1.15;;;1.15;;
9801;SDS011;4940;50.900;4.672;2024-01-30T13:45:02;2.00;;;1.50;;
9801;SDS011;4940;50.900;4.672;2024-01-30T13:47:30;2.20;;;1.60;;
9801;SDS011;4940;50.900;4.672;2024-01-30T13:49:58;3.08;;;1.58;;
9801;SDS011;4940;50.900;4.672;2024-01-30T13:52:25;3.88;;;1.95;;
9801;SDS011;4940;50.900;4.672;2024-01-30T13:54:53;2.00;;;1.80;;
9801;SDS011;4940;50.900;4.672;2024-01-30T13:57:21;3.95;;;1.65;;
9801;SDS011;4940;50.900;4.672;2024-01-30T13:59:48;2.22;;;1.65;;
9801;SDS011;4940;50.900;4.672;2024-01-30T14:02:16;1.80;;;1.70;;
9801;SDS011;4940;50.900;4.672;2024-01-30T14:04:44;4.47;;;2.33;;
9801;SDS011;4940;50.900;4.672;2024-01-30T14:07:12;2.50;;;2.30;;
9801;SDS011;4940;50.900;4.672;2024-01-30T14:09:39;3.80;;;2.30;;
9801;SDS011;4940;50.900;4.672;2024-01-30T14:12:07;2.53;;;2.00;;
9801;SDS011;4940;50.900;4.672;2024-01-30T14:14:34;3.88;;;2.08;;
9801;SDS011;4940;50.900;4.672;2024-01-30T14:17:02;2.63;;;2.42;;
9801;SDS011;4940;50.900;4.672;2024-01-30T14:19:32;3.05;;;2.53;;
9801;SDS011;4940;50.900;4.672;2024-01-30T14:22:01;3.42;;;1.80;;
9801;SDS011;4940;50.900;4.672;2024-01-30T14:24:28;3.30;;;1.58;;
9801;SDS011;4940;50.900;4.672;2024-01-30T14:26:56;1.40;;;1.30;;
9801;SDS011;4940;50.900;4.672;2024-01-30T14:29:25;3.20;;;1.55;;
9801;SDS011;4940;50.900;4.672;2024-01-30T14:31:52;2.00;;;1.55;;
9801;SDS011;4940;50.900;4.672;2024-01-30T14:34:20;2.35;;;1.90;;
9801;SDS011;4940;50.900;4.672;2024-01-30T14:36:48;4.30;;;1.75;;
9801;SDS011;4940;50.900;4.672;2024-01-30T14:39:16;3.95;;;2.30;;
9801;SDS011;4940;50.900;4.672;2024-01-30T14:41:43;2.50;;;2.30;;
9801;SDS011;4940;50.900;4.672;2024-01-30T14:44:11;3.78;;;2.42;;
9801;SDS011;4940;50.900;4.672;2024-01-30T14:46:39;2.45;;;2.22;;
9801;SDS011;4940;50.900;4.672;2024-01-30T14:49:07;3.13;;;2.92;;
9801;SDS011;4940;50.900;4.672;2024-01-30T14:51:35;4.25;;;3.40;;
9801;SDS011;4940;50.900;4.672;2024-01-30T14:54:03;5.47;;;5.03;;
9801;SDS011;4940;50.900;4.672;2024-01-30T14:56:35;5.97;;;5.57;;